createdAt,value
2023-03-18T00:01:21.543Z,26.90
2023-03-18T00:03:50.761Z,26.40
2023-03-18T00:06:24.422Z,26.40
2023-03-18T00:08:52.512Z,26.40
2023-03-18T00:11:35.110Z,26.40
2023-03-18T00:14:01.155Z,26.40
2023-03-18T00:16:27.395Z,26.40
2023-03-18T00:18:53.939Z,26.40
2023-03-18T00:21:22.968Z,26.40
2023-03-18T00:23:58.194Z,26.40
2023-03-18T00:26:30.422Z,26.40
2023-03-18T00:29:07.590Z,26.40
2023-03-18T00:31:33.815Z,26.40
2023-03-18T00:34:00.305Z,26.40
2023-03-18T00:36:37.949Z,26.40
2023-03-18T00:39:33.494Z,26.40
2023-03-18T00:42:13.927Z,26.40
2023-03-18T00:44:53.964Z,26.40
2023-03-18T00:47:21.671Z,26.40
2023-03-18T00:49:47.804Z,26.40
2023-03-18T00:52:13.869Z,26.40
2023-03-18T00:54:40.164Z,26.40
2023-03-18T00:57:06.280Z,26.40
2023-03-18T00:59:42.816Z,26.40
2023-03-18T01:02:19.832Z,26.40
2023-03-18T01:04:46.272Z,26.40
2023-03-18T01:07:29.394Z,26.40
2023-03-18T01:09:55.479Z,26.40
2023-03-18T01:12:26.304Z,26.40
2023-03-18T01:14:52.342Z,26.40
2023-03-18T01:17:31.710Z,26.40
2023-03-18T01:20:05.378Z,26.40
2023-03-18T01:22:31.669Z,26.40
2023-03-18T01:25:01.008Z,26.40
2023-03-18T01:27:31.882Z,26.40
2023-03-18T01:30:03.232Z,26.40
2023-03-18T01:32:33.653Z,26.40
2023-03-18T01:35:02.533Z,26.50
2023-03-18T01:37:28.618Z,26.40
2023-03-18T01:39:54.904Z,26.40
2023-03-18T01:42:24.815Z,26.40
2023-03-18T01:45:20.985Z,26.40
2023-03-18T01:47:49.169Z,26.40
2023-03-18T01:50:34.519Z,26.50
2023-03-18T01:53:13.192Z,26.50
2023-03-18T01:55:44.962Z,26.50
2023-03-18T01:58:37.840Z,26.50
2023-03-18T02:01:36.877Z,26.50
2023-03-18T02:04:12.750Z,26.50
2023-03-18T02:06:45.281Z,26.50
2023-03-18T02:09:16.502Z,26.50
2023-03-18T02:11:49.653Z,26.50
2023-03-18T02:14:30.672Z,26.50
2023-03-18T02:17:13.672Z,26.50
2023-03-18T02:19:57.520Z,26.50
2023-03-18T02:23:26.898Z,26.50
2023-03-18T02:26:48.428Z,26.50
2023-03-18T02:29:17.681Z,26.50
2023-03-18T02:31:50.395Z,26.50
2023-03-18T02:34:22.157Z,26.50
2023-03-18T02:36:48.259Z,26.50
2023-03-18T02:39:15.539Z,26.50
2023-03-18T02:42:05.975Z,26.50
2023-03-18T02:44:44.464Z,26.50
2023-03-18T02:47:21.296Z,26.50
2023-03-18T02:49:49.492Z,26.50
2023-03-18T02:52:19.978Z,26.50
2023-03-18T02:54:59.325Z,26.50
2023-03-18T02:57:31.250Z,26.50
2023-03-18T03:00:08.535Z,26.60
2023-03-18T03:02:44.844Z,26.60
2023-03-18T03:05:12.465Z,26.60
2023-03-18T03:07:55.070Z,26.60
2023-03-18T03:10:21.164Z,26.60
2023-03-18T03:12:47.258Z,26.60
2023-03-18T03:15:13.738Z,26.60
2023-03-18T03:17:47.985Z,26.60
2023-03-18T03:20:24.454Z,26.60
2023-03-18T03:22:53.514Z,26.60
2023-03-18T03:28:20.788Z,26.60
2023-03-18T03:30:53.811Z,26.60
2023-03-18T03:33:30.754Z,26.60
2023-03-18T03:36:11.291Z,26.60
2023-03-18T03:38:56.334Z,26.60
2023-03-18T03:41:34.522Z,26.60
2023-03-18T03:44:26.099Z,26.60
2023-03-18T03:47:13.788Z,26.60
2023-03-18T03:49:52.977Z,26.60
2023-03-18T03:52:39.713Z,26.60
2023-03-18T03:55:29.375Z,26.60
2023-03-18T04:00:55.814Z,26.60
2023-03-18T04:03:31.334Z,26.60
2023-03-18T04:06:18.501Z,26.60
2023-03-18T04:08:57.483Z,26.60
2023-03-18T04:11:36.214Z,26.50
2023-03-18T04:14:08.537Z,26.50
2023-03-18T04:16:40.703Z,26.50
2023-03-18T04:19:12.517Z,26.50
2023-03-18T04:21:49.311Z,26.50
2023-03-18T04:24:41.697Z,26.50
2023-03-18T04:27:18.911Z,26.60
2023-03-18T04:29:53.945Z,26.50
2023-03-18T04:32:38.520Z,26.40
2023-03-18T04:35:28.104Z,26.50
2023-03-18T04:38:01.570Z,26.40
2023-03-18T04:40:54.198Z,27.00
2023-03-18T04:43:23.509Z,26.40
2023-03-18T04:45:52.243Z,27.00
2023-03-18T04:48:28.599Z,26.40
2023-03-18T04:51:10.800Z,26.40
2023-03-18T04:53:41.753Z,26.40
2023-03-18T04:56:17.413Z,26.40
2023-03-18T04:58:43.632Z,26.40
2023-03-18T05:01:13.175Z,26.40
2023-03-18T05:03:50.529Z,26.40
2023-03-18T05:06:29.342Z,26.40
2023-03-18T05:09:04.768Z,26.40
2023-03-18T05:14:25.028Z,26.40
2023-03-18T05:16:54.213Z,26.30
2023-03-18T05:19:22.009Z,26.40
2023-03-18T05:22:08.729Z,26.40
2023-03-18T05:24:56.867Z,26.30
2023-03-18T05:30:24.644Z,26.40
2023-03-18T05:32:53.195Z,26.40
2023-03-18T05:35:28.322Z,26.30
2023-03-18T05:38:01.900Z,26.30
2023-03-18T05:40:37.288Z,26.30
2023-03-18T05:43:04.981Z,26.40
2023-03-18T05:45:31.531Z,26.30
2023-03-18T05:48:13.139Z,26.30
2023-03-18T05:50:44.891Z,26.30
2023-03-18T05:53:18.098Z,26.30
2023-03-18T05:55:48.129Z,26.30
2023-03-18T05:58:31.464Z,26.30
2023-03-18T06:01:13.599Z,26.30
2023-03-18T06:03:51.880Z,26.30
2023-03-18T06:06:21.387Z,26.30
2023-03-18T06:08:47.981Z,26.30
2023-03-18T06:11:15.116Z,26.30
2023-03-18T06:13:45.796Z,26.30
2023-03-18T06:16:23.092Z,26.20
2023-03-18T06:18:50.073Z,26.30
2023-03-18T06:21:26.523Z,26.30
2023-03-18T06:24:14.636Z,26.30
2023-03-18T06:26:43.807Z,26.30
2023-03-18T06:29:23.441Z,26.30
2023-03-18T06:32:25.535Z,26.30
2023-03-18T06:35:04.617Z,26.30
2023-03-18T06:37:45.057Z,26.30
2023-03-18T06:40:12.952Z,26.30
2023-03-18T06:42:45.023Z,26.30
2023-03-18T06:45:12.362Z,26.30
2023-03-18T06:47:44.397Z,26.30
2023-03-18T06:50:25.914Z,26.30
2023-03-18T06:53:00.528Z,26.30
2023-03-18T06:55:27.405Z,26.30
2023-03-18T06:57:54.149Z,26.30
2023-03-18T07:00:22.180Z,26.30
2023-03-18T07:02:55.474Z,26.30
2023-03-18T07:05:22.281Z,26.30
2023-03-18T07:07:50.408Z,26.30
2023-03-18T07:10:29.162Z,26.30
2023-03-18T07:13:06.641Z,26.30
2023-03-18T07:15:39.789Z,26.30
2023-03-18T07:18:16.700Z,26.30
2023-03-18T07:20:57.447Z,26.30
2023-03-18T07:23:34.227Z,26.30
2023-03-18T07:26:09.792Z,26.40
2023-03-18T07:28:35.854Z,26.30
2023-03-18T07:31:10.915Z,26.30
2023-03-18T07:33:44.464Z,26.40
2023-03-18T07:36:10.553Z,26.40
2023-03-18T07:38:40.681Z,26.40
2023-03-18T07:41:22.780Z,26.40
2023-03-18T07:43:54.021Z,26.40
2023-03-18T07:46:20.647Z,26.40
2023-03-18T07:48:57.329Z,26.40
2023-03-18T07:51:26.667Z,26.40
2023-03-18T07:53:54.906Z,26.40
2023-03-18T07:56:36.381Z,26.40
2023-03-18T07:59:09.666Z,26.40
2023-03-18T08:01:50.032Z,26.40
2023-03-18T08:04:26.984Z,26.40
2023-03-18T08:06:57.261Z,26.60
2023-03-18T08:09:23.887Z,26.40
2023-03-18T08:12:13.573Z,26.40
2023-03-18T08:14:45.287Z,26.40
2023-03-18T08:17:11.700Z,26.40
2023-03-18T08:19:53.475Z,26.40
2023-03-18T08:22:32.171Z,26.40
2023-03-18T08:24:59.397Z,26.40
2023-03-18T08:27:25.464Z,26.40
2023-03-18T08:30:01.589Z,26.40
2023-03-18T08:32:34.557Z,26.40
2023-03-18T08:35:16.833Z,26.50
2023-03-18T08:37:57.771Z,26.40
2023-03-18T08:40:43.986Z,26.40
2023-03-18T08:43:10.164Z,26.40
2023-03-18T08:45:42.855Z,26.50
2023-03-18T08:48:13.292Z,26.50
2023-03-18T08:50:45.158Z,26.50
2023-03-18T08:56:06.940Z,26.50
2023-03-18T08:58:47.884Z,26.50
2023-03-18T09:01:15.073Z,26.50
2023-03-18T09:03:44.412Z,26.50
2023-03-18T09:06:12.177Z,26.50
2023-03-18T09:08:41.056Z,26.50
2023-03-18T09:11:13.145Z,26.50
2023-03-18T09:13:42.053Z,26.50
2023-03-18T09:16:08.177Z,26.50
2023-03-18T09:18:38.075Z,26.50
2023-03-18T09:21:08.331Z,26.50
2023-03-18T09:23:43.419Z,26.50
2023-03-18T09:26:14.185Z,26.50
2023-03-18T09:28:40.245Z,26.50
2023-03-18T09:31:26.416Z,26.50
2023-03-18T09:33:56.704Z,26.60
2023-03-18T09:36:28.288Z,26.60
2023-03-18T09:39:04.766Z,26.50
2023-03-18T09:42:08.691Z,26.60
2023-03-18T09:44:44.416Z,26.50
2023-03-18T09:47:53.176Z,26.50
2023-03-18T09:50:27.702Z,26.60
2023-03-18T09:53:10.945Z,26.60
2023-03-18T09:55:55.054Z,26.50
2023-03-18T09:58:32.220Z,26.60
2023-03-18T10:01:26.328Z,26.60
2023-03-18T10:04:38.398Z,26.60
2023-03-18T10:07:29.889Z,26.60
2023-03-18T10:10:34.819Z,26.60
2023-03-18T10:13:50.296Z,26.60
2023-03-18T10:16:29.619Z,26.60
2023-03-18T10:19:07.393Z,26.60
2023-03-18T10:22:03.161Z,26.60
2023-03-18T10:24:51.155Z,26.60
2023-03-18T10:27:58.492Z,26.60
2023-03-18T10:31:03.460Z,26.60
2023-03-18T10:34:07.781Z,26.60
2023-03-18T10:36:54.441Z,26.60
2023-03-18T10:39:26.975Z,26.70
2023-03-18T10:42:19.715Z,26.60
2023-03-18T10:44:57.273Z,26.60
2023-03-18T10:47:31.824Z,26.60
2023-03-18T10:50:47.643Z,26.60
2023-03-18T10:53:36.285Z,26.60
2023-03-18T10:56:14.044Z,26.60
2023-03-18T10:58:41.531Z,26.60
2023-03-18T11:01:15.760Z,26.60
2023-03-18T11:03:55.109Z,26.70
2023-03-18T11:06:38.883Z,26.60
2023-03-18T11:09:25.372Z,26.70
2023-03-18T11:12:24.680Z,26.60
2023-03-18T11:14:53.253Z,26.60
2023-03-18T11:17:36.062Z,26.70
2023-03-18T11:20:23.976Z,26.70
2023-03-18T11:22:56.929Z,26.70
2023-03-18T11:25:51.637Z,26.70
2023-03-18T11:28:31.527Z,26.70
2023-03-18T11:31:13.908Z,26.60
2023-03-18T11:33:40.196Z,26.70
2023-03-18T11:36:15.151Z,26.70
2023-03-18T11:38:47.695Z,26.70
2023-03-18T11:41:29.769Z,26.70
2023-03-18T11:44:19.995Z,26.70
2023-03-18T11:47:10.721Z,26.70
2023-03-18T11:49:43.957Z,26.70
2023-03-18T11:53:05.559Z,26.70
2023-03-18T11:55:47.068Z,26.70
2023-03-18T11:58:35.934Z,26.70
2023-03-18T12:01:35.769Z,26.70
2023-03-18T12:04:41.537Z,26.70
2023-03-18T12:07:50.623Z,26.70
2023-03-18T12:10:34.017Z,26.70
2023-03-18T12:13:20.087Z,26.70
2023-03-18T12:15:59.204Z,26.70
2023-03-18T12:19:02.239Z,27.20
2023-03-18T12:22:11.100Z,26.70
2023-03-18T12:25:03.392Z,26.70
2023-03-18T12:28:04.094Z,26.70
2023-03-18T12:30:58.728Z,26.70
2023-03-18T12:34:02.293Z,26.80
2023-03-18T12:37:18.327Z,26.80
2023-03-18T12:40:28.562Z,26.70
2023-03-18T12:43:12.113Z,26.70
2023-03-18T12:46:06.605Z,26.70
2023-03-18T12:48:50.098Z,26.80
2023-03-18T12:51:31.472Z,26.80
2023-03-18T12:54:09.680Z,26.70
2023-03-18T12:56:50.276Z,26.80
2023-03-18T12:59:42.830Z,26.80
2023-03-18T13:02:20.735Z,26.80
2023-03-18T13:05:02.304Z,26.80
2023-03-18T13:07:52.378Z,26.80
2023-03-18T13:10:36.759Z,26.80
2023-03-18T13:13:22.014Z,26.80
2023-03-18T13:16:03.076Z,26.80
2023-03-18T13:18:44.382Z,26.80
2023-03-18T13:21:23.740Z,26.80
2023-03-18T13:24:18.447Z,26.80
2023-03-18T13:27:15.604Z,26.80
2023-03-18T13:30:35.076Z,26.80
2023-03-18T13:33:41.930Z,26.80
2023-03-18T13:36:34.532Z,26.80
2023-03-18T13:39:33.441Z,26.80
2023-03-18T13:42:27.354Z,26.80
2023-03-18T13:45:00.559Z,26.80
2023-03-18T13:47:40.373Z,26.80
2023-03-18T13:50:43.339Z,26.80
2023-03-18T13:53:46.516Z,26.80
2023-03-18T13:56:31.225Z,26.80
2023-03-18T13:59:37.111Z,26.80
2023-03-18T14:02:42.273Z,26.80
2023-03-18T14:05:37.864Z,26.90
2023-03-18T14:08:28.309Z,26.80
2023-03-18T14:11:27.711Z,26.80
2023-03-18T14:14:10.933Z,26.90
2023-03-18T14:16:59.908Z,26.90
2023-03-18T14:19:39.466Z,26.90
2023-03-18T14:22:28.436Z,26.90
2023-03-18T14:25:45.828Z,26.90
2023-03-18T14:28:19.932Z,26.90
2023-03-18T14:31:19.940Z,26.90
2023-03-18T14:34:23.908Z,26.90
2023-03-18T14:37:02.550Z,26.90
2023-03-18T14:40:03.116Z,26.90
2023-03-18T14:42:58.520Z,26.90
2023-03-18T14:45:42.074Z,26.90
2023-03-18T14:48:34.907Z,26.90
2023-03-18T14:51:23.653Z,26.90
2023-03-18T14:54:05.192Z,26.90
2023-03-18T14:56:48.769Z,26.90
2023-03-18T14:59:17.071Z,26.90
2023-03-18T15:01:53.244Z,26.90
2023-03-18T15:04:30.694Z,26.90
2023-03-18T15:07:06.236Z,27.00
2023-03-18T15:09:35.268Z,26.90
2023-03-18T15:12:37.855Z,26.90
2023-03-18T15:15:19.402Z,26.90
2023-03-18T15:18:04.642Z,26.90
2023-03-18T15:20:36.951Z,26.90
2023-03-18T15:23:13.078Z,26.90
2023-03-18T15:25:42.831Z,26.90
2023-03-18T15:28:24.970Z,26.90
2023-03-18T15:31:11.116Z,26.90
2023-03-18T15:33:42.365Z,27.50
2023-03-18T15:36:23.044Z,26.90
2023-03-18T15:38:51.701Z,26.90
2023-03-18T15:41:29.979Z,27.00
2023-03-18T15:44:26.862Z,26.90
2023-03-18T15:47:22.637Z,26.90
2023-03-18T15:50:10.568Z,26.90
2023-03-18T15:52:41.477Z,26.90
2023-03-18T15:55:36.909Z,27.00
2023-03-18T15:58:09.440Z,27.00
2023-03-18T16:00:35.541Z,26.90
2023-03-18T16:03:43.418Z,26.90
2023-03-18T16:06:17.795Z,27.00
2023-03-18T16:08:50.448Z,27.00
2023-03-18T16:11:16.620Z,27.00
2023-03-18T16:13:58.085Z,27.00
2023-03-18T16:16:28.751Z,27.00
2023-03-18T16:19:00.518Z,27.10
2023-03-18T16:21:29.098Z,27.10
2023-03-18T16:23:58.917Z,27.10
2023-03-18T16:26:35.090Z,27.10
2023-03-18T16:29:01.853Z,27.10
2023-03-18T16:31:40.899Z,27.20
2023-03-18T16:34:28.771Z,27.20
2023-03-18T16:36:55.413Z,27.30
2023-03-18T16:39:38.584Z,27.30
2023-03-18T16:42:12.017Z,27.40
2023-03-18T16:44:54.535Z,27.50
2023-03-18T16:47:35.239Z,27.50
2023-03-18T16:50:45.081Z,27.50
2023-03-18T16:53:30.990Z,27.50
2023-03-18T16:56:18.511Z,27.60
2023-03-18T16:58:54.015Z,27.60
2023-03-18T17:01:38.573Z,27.70
2023-03-18T17:04:31.227Z,27.70
2023-03-18T17:07:18.239Z,27.80
2023-03-18T17:09:44.506Z,27.80
2023-03-18T17:12:15.316Z,27.90
2023-03-18T17:15:03.064Z,27.90
2023-03-18T17:17:39.343Z,28.00
2023-03-18T17:23:12.950Z,28.00
2023-03-18T17:25:58.899Z,28.10
2023-03-18T17:28:43.150Z,28.10
2023-03-18T17:31:14.908Z,28.20
2023-03-18T17:36:40.585Z,28.30
2023-03-18T17:39:09.686Z,28.40
2023-03-18T17:41:41.267Z,28.40
2023-03-18T17:44:33.042Z,28.40
2023-03-18T17:47:13.952Z,28.40
2023-03-18T17:49:55.139Z,28.40
2023-03-18T17:52:26.872Z,28.40
2023-03-18T17:55:02.267Z,28.50
2023-03-18T17:57:35.892Z,28.50
2023-03-18T18:00:20.335Z,28.60
2023-03-18T18:02:48.455Z,28.60
2023-03-18T18:05:17.113Z,29.90
2023-03-18T18:07:50.896Z,29.30
2023-03-18T18:10:26.491Z,29.10
2023-03-18T18:13:00.514Z,29.20
2023-03-18T18:15:37.176Z,29.00
2023-03-18T18:19:02.478Z,28.90
2023-03-18T18:21:34.633Z,28.90
2023-03-18T18:27:23.552Z,28.90
2023-03-18T18:30:00.843Z,28.90
2023-03-18T18:32:27.060Z,28.90
2023-03-18T18:34:56.993Z,28.80
2023-03-18T18:37:28.386Z,28.90
2023-03-18T18:39:59.826Z,28.80
2023-03-18T18:42:26.498Z,28.80
2023-03-18T18:44:53.283Z,28.80
2023-03-18T18:47:37.427Z,28.80
2023-03-18T18:50:17.153Z,28.80
2023-03-18T18:52:52.476Z,28.80
2023-03-18T18:55:33.973Z,28.80
2023-03-18T18:58:04.683Z,28.80
2023-03-18T19:00:44.354Z,28.80
2023-03-18T19:03:37.202Z,28.80
2023-03-18T19:06:05.042Z,28.70
2023-03-18T19:08:35.495Z,28.70
2023-03-18T19:11:14.856Z,28.80
2023-03-18T19:13:44.294Z,28.70
2023-03-18T19:16:39.933Z,28.70
2023-03-18T19:19:32.317Z,28.70
2023-03-18T19:22:02.929Z,28.70
2023-03-18T19:24:38.583Z,28.70
2023-03-18T19:27:29.153Z,28.70
2023-03-18T19:30:07.531Z,28.70
2023-03-18T19:32:41.713Z,28.70
2023-03-18T19:35:14.428Z,28.70
2023-03-18T19:37:44.985Z,28.60
2023-03-18T19:40:30.095Z,28.70
2023-03-18T19:42:56.412Z,28.70
2023-03-18T19:45:25.381Z,28.70
2023-03-18T19:48:03.688Z,28.60
2023-03-18T19:50:34.194Z,28.80
2023-03-18T19:53:20.369Z,28.60
2023-03-18T19:55:58.567Z,28.60
2023-03-18T19:58:30.995Z,28.60
2023-03-18T20:01:02.291Z,28.60
2023-03-18T20:03:36.165Z,28.60
2023-03-18T20:06:11.082Z,28.60
2023-03-18T20:08:41.191Z,28.60
2023-03-18T20:11:43.124Z,28.60
2023-03-18T20:14:41.936Z,28.60
2023-03-18T20:17:27.986Z,28.60
2023-03-18T20:19:55.932Z,28.60
2023-03-18T20:22:39.134Z,28.60
2023-03-18T20:25:23.934Z,28.60
2023-03-18T20:27:58.792Z,28.60
2023-03-18T20:30:39.270Z,28.60
2023-03-18T20:33:17.170Z,28.60
2023-03-18T20:35:45.860Z,28.60
2023-03-18T20:41:25.330Z,28.60
2023-03-18T20:44:00.872Z,28.60
2023-03-18T20:46:39.651Z,28.60
2023-03-18T20:49:12.100Z,28.60
2023-03-18T20:51:43.579Z,28.60
2023-03-18T20:54:33.687Z,28.60
2023-03-18T20:57:10.309Z,28.60
2023-03-18T20:59:47.004Z,28.60
2023-03-18T21:02:49.638Z,28.60
2023-03-18T21:05:34.891Z,28.60
2023-03-18T21:08:01.171Z,28.60
2023-03-18T21:10:36.733Z,28.60
2023-03-18T21:13:27.889Z,28.60
2023-03-18T21:15:55.857Z,28.60
2023-03-18T21:18:29.224Z,28.60
2023-03-18T21:20:58.882Z,28.60
2023-03-18T21:23:45.052Z,28.60
2023-03-18T21:26:19.622Z,28.60
2023-03-18T21:28:53.202Z,28.60
2023-03-18T21:31:32.355Z,28.60
2023-03-18T21:34:09.935Z,28.60
2023-03-18T21:36:48.351Z,28.60
2023-03-18T21:39:20.629Z,28.60
2023-03-18T21:41:49.752Z,28.60
2023-03-18T21:44:19.323Z,28.60
2023-03-18T21:46:45.413Z,28.60
2023-03-18T21:49:16.125Z,28.60
2023-03-18T21:51:42.635Z,28.60
2023-03-18T21:54:29.239Z,28.60
2023-03-18T21:57:00.616Z,28.60
2023-03-18T21:59:35.565Z,28.60
2023-03-18T22:02:41.371Z,28.60
2023-03-18T22:05:22.214Z,28.60
2023-03-18T22:07:57.724Z,28.60
2023-03-18T22:10:26.924Z,28.80
2023-03-18T22:12:59.425Z,28.60
2023-03-18T22:15:39.532Z,28.70
2023-03-18T22:18:07.834Z,28.60
2023-03-18T22:20:54.850Z,28.70
2023-03-18T22:23:26.714Z,29.20
2023-03-18T22:26:00.386Z,28.60
2023-03-18T22:28:34.835Z,28.70
2023-03-18T22:31:13.889Z,28.60
2023-03-18T22:33:51.186Z,28.70
2023-03-18T22:36:18.768Z,28.60
2023-03-18T22:38:50.722Z,28.70
2023-03-18T22:41:40.199Z,28.60
2023-03-18T22:44:22.490Z,28.60
2023-03-18T22:47:00.905Z,28.60
2023-03-18T22:49:37.454Z,28.70
2023-03-18T22:52:37.420Z,28.60
2023-03-18T22:55:24.328Z,28.70
2023-03-18T22:58:01.600Z,28.60
2023-03-18T23:00:47.533Z,28.60
2023-03-18T23:03:28.067Z,28.60
2023-03-18T23:05:59.209Z,28.70
2023-03-18T23:08:35.483Z,28.70
2023-03-18T23:11:19.067Z,28.70
2023-03-18T23:14:24.272Z,28.70
2023-03-18T23:17:04.442Z,28.70
2023-03-18T23:19:37.485Z,28.70
2023-03-18T23:22:08.844Z,28.70
2023-03-18T23:24:47.557Z,28.70
2023-03-18T23:27:22.884Z,28.70
2023-03-18T23:29:52.406Z,28.70
2023-03-18T23:32:19.105Z,28.70
2023-03-18T23:34:53.353Z,28.70
2023-03-18T23:37:23.466Z,28.70
2023-03-18T23:39:56.245Z,28.70
2023-03-18T23:42:35.297Z,28.70
2023-03-18T23:45:06.896Z,28.70
2023-03-18T23:47:43.517Z,28.70
2023-03-18T23:50:17.886Z,28.70
2023-03-18T23:52:46.532Z,28.70
2023-03-18T23:55:33.660Z,28.70
2023-03-18T23:58:12.083Z,28.70
